createdAt,value
2018-09-11T00:56:29.406Z,6.63
2018-09-11T00:58:58.230Z,5.50
2018-09-11T01:01:27.621Z,4.30
2018-09-11T01:03:57.899Z,4.33
2018-09-11T01:06:26.809Z,5.37
2018-09-11T01:08:56.784Z,7.90
2018-09-11T01:11:25.723Z,6.77
2018-09-11T01:13:54.378Z,6.90
2018-09-11T01:16:23.647Z,5.40
2018-09-11T01:18:52.757Z,5.77
2018-09-11T01:21:21.279Z,4.67
2018-09-11T01:23:50.795Z,6.87
2018-09-11T01:26:20.476Z,5.87
2018-09-11T01:28:49.039Z,7.53
2018-09-11T01:31:17.786Z,6.10
2018-09-11T01:33:48.374Z,6.27
2018-09-11T01:36:17.590Z,8.83
2018-09-11T01:38:46.374Z,5.70
2018-09-11T01:41:14.784Z,5.63
2018-09-11T01:43:43.806Z,4.83
2018-09-11T01:46:14.095Z,4.70
2018-09-11T01:48:42.941Z,5.50
2018-09-11T01:51:13.599Z,5.90
2018-09-11T01:53:42.229Z,10.27
2018-09-11T01:56:11.131Z,5.20
2018-09-11T01:58:40.120Z,5.30
2018-09-11T02:01:10.054Z,7.03
2018-09-11T02:03:40.164Z,4.37
2018-09-11T02:06:09.008Z,5.77
2018-09-11T02:08:37.956Z,4.70
2018-09-11T02:11:06.660Z,6.00
2018-09-11T02:13:35.951Z,6.57
2018-09-11T02:16:04.839Z,4.87
2018-09-11T02:18:33.586Z,5.40
2018-09-11T02:21:02.269Z,4.93
2018-09-11T02:23:30.972Z,5.87
2018-09-11T02:25:59.844Z,5.40
2018-09-11T02:28:28.436Z,5.60
2018-09-11T02:30:57.680Z,5.73
2018-09-11T02:33:26.426Z,4.37
2018-09-11T02:35:55.633Z,6.03
2018-09-11T02:38:24.196Z,6.77
2018-09-11T02:40:54.130Z,6.67
2018-09-11T02:43:22.517Z,4.93
2018-09-11T02:45:51.695Z,4.10
2018-09-11T02:48:20.390Z,5.80
2018-09-11T02:50:48.989Z,10.50
2018-09-11T02:53:18.412Z,4.87
2018-09-11T02:55:47.301Z,5.47
2018-09-11T02:58:15.831Z,8.13
2018-09-11T03:00:44.473Z,8.73
2018-09-11T03:03:13.282Z,4.53
2018-09-11T03:05:42.631Z,5.37
2018-09-11T03:08:12.580Z,4.70
2018-09-11T03:10:40.972Z,6.97
2018-09-11T03:13:10.602Z,5.67
2018-09-11T03:15:40.250Z,8.53
2018-09-11T03:18:10.538Z,4.93
2018-09-11T03:20:39.116Z,6.27
2018-09-11T03:23:07.625Z,4.93
2018-09-11T03:25:36.477Z,5.60
2018-09-11T03:28:05.273Z,5.97
2018-09-11T03:30:35.323Z,5.03
2018-09-11T03:33:03.917Z,6.23
2018-09-11T03:35:33.441Z,6.63
2018-09-11T03:38:02.581Z,6.20
2018-09-11T03:40:32.639Z,5.23
2018-09-11T03:43:01.502Z,6.40
2018-09-11T03:45:32.487Z,6.00
2018-09-11T03:48:01.157Z,5.43
2018-09-11T03:50:30.645Z,5.13
2018-09-11T03:52:59.208Z,6.63
2018-09-11T03:55:28.098Z,6.33
2018-09-11T03:57:58.368Z,9.00
2018-09-11T04:00:27.001Z,5.77
2018-09-11T04:02:56.004Z,5.23
2018-09-11T04:05:24.798Z,6.57
2018-09-11T04:07:54.633Z,5.40
2018-09-11T04:10:23.653Z,8.57
2018-09-11T04:12:52.812Z,6.87
2018-09-11T04:15:21.942Z,7.90
2018-09-11T04:17:51.764Z,8.97
2018-09-11T04:20:20.682Z,8.37
2018-09-11T04:22:49.716Z,6.17
2018-09-11T04:25:18.487Z,6.10
2018-09-11T04:27:47.317Z,7.30
2018-09-11T04:30:16.017Z,9.00
2018-09-11T04:32:45.872Z,6.70
2018-09-11T04:35:15.932Z,8.07
2018-09-11T04:37:44.526Z,5.90
2018-09-11T04:40:13.799Z,8.20
2018-09-11T04:42:42.753Z,6.93
2018-09-11T04:45:11.651Z,8.47
2018-09-11T04:47:41.596Z,8.13
2018-09-11T04:50:10.443Z,6.53
2018-09-11T04:52:39.085Z,7.83
2018-09-11T04:55:08.013Z,5.13
2018-09-11T04:57:37.101Z,8.40
2018-09-11T05:00:05.892Z,6.67
2018-09-11T05:02:34.821Z,8.60
2018-09-11T05:05:04.635Z,8.57
2018-09-11T05:07:33.792Z,7.50
2018-09-11T05:10:04.190Z,9.80
2018-09-11T05:12:35.058Z,7.27
2018-09-11T05:15:05.573Z,7.73
2018-09-11T05:17:37.386Z,6.40
2018-09-11T05:20:06.611Z,6.97
2018-09-11T05:22:36.528Z,9.27
2018-09-11T05:25:05.620Z,6.90
2018-09-11T05:27:35.185Z,5.80
2018-09-11T05:30:04.894Z,7.77
2018-09-11T05:32:34.223Z,6.17
2018-09-11T05:35:04.508Z,5.83
2018-09-11T05:37:34.183Z,6.13
2018-09-11T05:40:05.077Z,7.50
2018-09-11T05:42:34.528Z,7.13
2018-09-11T05:45:03.889Z,9.13
2018-09-11T05:47:38.711Z,8.90
2018-09-11T05:50:07.620Z,8.67
2018-09-11T05:52:37.447Z,6.73
2018-09-11T05:55:06.697Z,6.10
2018-09-11T05:57:35.801Z,7.10
2018-09-11T06:00:06.414Z,8.30
2018-09-11T06:02:35.733Z,7.00
2018-09-11T06:05:06.389Z,9.20
2018-09-11T06:07:36.531Z,9.37
2018-09-11T06:10:05.254Z,11.43
2018-09-11T06:12:34.658Z,8.13
2018-09-11T06:15:05.328Z,8.03
2018-09-11T06:17:34.703Z,6.43
2018-09-11T06:20:04.159Z,6.90
2018-09-11T06:22:33.419Z,7.87
2018-09-11T06:25:02.147Z,10.13
2018-09-11T06:27:32.380Z,9.67
2018-09-11T06:30:01.261Z,7.40
2018-09-11T06:32:30.737Z,6.80
2018-09-11T06:35:01.432Z,7.57
2018-09-11T06:37:30.759Z,7.70
2018-09-11T06:40:01.032Z,8.70
2018-09-11T06:42:30.735Z,6.87
2018-09-11T06:44:59.776Z,8.67
2018-09-11T06:47:28.491Z,5.83
2018-09-11T06:49:57.463Z,7.70
2018-09-11T06:52:28.016Z,7.87
2018-09-11T06:54:56.805Z,8.27
2018-09-11T06:57:27.229Z,10.83
2018-09-11T06:59:56.382Z,9.47
2018-09-11T07:02:25.329Z,9.13
2018-09-11T07:04:54.414Z,9.50
2018-09-11T07:07:24.116Z,7.60
2018-09-11T07:09:52.866Z,9.93
2018-09-11T07:12:21.838Z,7.40
2018-09-11T07:14:50.355Z,8.13
2018-09-11T07:17:19.154Z,6.50
2018-09-11T07:19:48.033Z,6.50
2018-09-11T07:22:17.414Z,8.03
2018-09-11T07:24:47.850Z,7.40
2018-09-11T07:27:18.006Z,9.30
2018-09-11T07:29:47.625Z,9.23
2018-09-11T07:32:16.891Z,7.25
2018-09-11T07:34:45.571Z,5.83
2018-09-11T07:37:14.183Z,7.33
2018-09-11T07:39:44.144Z,7.83
2018-09-11T07:42:14.019Z,9.75
2018-09-11T07:44:43.828Z,7.92
2018-09-11T07:47:13.126Z,12.58
2018-09-11T07:49:42.174Z,6.28
2018-09-11T07:52:10.983Z,6.87
2018-09-11T07:54:39.688Z,8.65
2018-09-11T07:57:08.608Z,8.23
2018-09-11T07:59:38.138Z,11.20
2018-09-11T08:02:07.501Z,8.40
2018-09-11T08:04:39.113Z,7.03
2018-09-11T08:07:07.909Z,6.85
2018-09-11T08:09:36.965Z,6.95
2018-09-11T08:12:06.371Z,9.00
2018-09-11T08:14:35.772Z,6.62
2018-09-11T08:17:05.571Z,11.05
2018-09-11T08:19:34.377Z,8.55
2018-09-11T08:22:03.176Z,7.25
2018-09-11T08:24:34.592Z,10.55
2018-09-11T08:27:03.350Z,11.60
2018-09-11T08:29:31.924Z,8.53
2018-09-11T08:32:01.913Z,9.88
2018-09-11T08:34:30.399Z,8.58
2018-09-11T08:36:58.821Z,9.08
2018-09-11T08:39:27.729Z,5.97
2018-09-11T08:41:56.124Z,7.75
2018-09-11T08:44:25.203Z,12.10
2018-09-11T08:46:53.834Z,12.15
2018-09-11T08:49:22.832Z,9.45
2018-09-11T08:51:52.185Z,7.53
2018-09-11T08:54:20.889Z,8.35
2018-09-11T08:56:49.656Z,6.40
2018-09-11T08:59:18.636Z,10.72
2018-09-11T09:01:47.373Z,8.53
2018-09-11T09:04:15.940Z,5.78
2018-09-11T09:06:44.389Z,8.28
2018-09-11T09:09:13.729Z,8.08
2018-09-11T09:11:42.407Z,9.33
2018-09-11T09:14:11.016Z,8.03
2018-09-11T09:16:39.796Z,7.70
2018-09-11T09:19:08.633Z,11.60
2018-09-11T09:21:37.283Z,8.18
2018-09-11T09:24:05.821Z,6.87
2018-09-11T09:26:34.465Z,6.85
2018-09-11T09:29:04.190Z,7.22
2018-09-11T09:31:33.327Z,8.33
2018-09-11T09:34:02.027Z,8.78
2018-09-11T09:36:31.309Z,6.67
2018-09-11T09:39:01.389Z,7.00
2018-09-11T09:41:31.188Z,8.65
2018-09-11T09:44:00.090Z,7.25
2018-09-11T09:46:29.147Z,8.73
2018-09-11T09:48:58.674Z,8.48
2018-09-11T09:51:27.649Z,7.37
2018-09-11T09:53:56.700Z,6.95
2018-09-11T09:56:25.350Z,10.10
2018-09-11T09:58:54.422Z,9.35
2018-09-11T10:01:28.556Z,9.88
2018-09-11T10:03:58.131Z,7.92
2018-09-11T10:06:27.176Z,6.28
2018-09-11T10:08:56.139Z,7.30
2018-09-11T10:11:25.123Z,6.92
2018-09-11T10:13:53.793Z,8.53
2018-09-11T10:16:22.206Z,6.87
2018-09-11T10:18:51.021Z,8.38
2018-09-11T10:21:19.449Z,6.72
2018-09-11T10:23:49.621Z,10.45
2018-09-11T10:26:19.380Z,6.60
2018-09-11T10:28:48.087Z,7.83
2018-09-11T10:31:16.882Z,9.08
2018-09-11T10:33:46.685Z,7.55
2018-09-11T10:36:16.067Z,5.37
2018-09-11T10:38:44.703Z,7.55
2018-09-11T10:41:15.328Z,5.90
2018-09-11T10:43:44.628Z,8.18
2018-09-11T10:46:13.143Z,6.42
2018-09-11T10:48:43.109Z,7.00
2018-09-11T10:51:13.436Z,6.60
2018-09-11T10:53:42.115Z,11.40
2018-09-11T10:56:11.100Z,9.80
2018-09-11T10:58:39.805Z,9.55
2018-09-11T11:01:08.659Z,9.13
2018-09-11T11:03:38.845Z,7.92
2018-09-11T11:06:07.874Z,6.15
2018-09-11T11:08:36.537Z,7.92
2018-09-11T11:11:05.390Z,11.73
2018-09-11T11:13:34.163Z,7.97
2018-09-11T11:16:07.055Z,6.30
2018-09-11T11:18:36.137Z,9.13
2018-09-11T11:21:05.468Z,8.93
2018-09-11T11:23:33.998Z,6.93
2018-09-11T11:26:02.803Z,7.93
2018-09-11T11:28:31.528Z,5.07
2018-09-11T11:31:00.935Z,9.87
2018-09-11T11:33:29.779Z,10.83
2018-09-11T11:35:58.546Z,6.97
2018-09-11T11:38:27.775Z,8.27
2018-09-11T11:40:56.513Z,13.00
2018-09-11T11:43:25.212Z,12.77
2018-09-11T11:45:54.667Z,9.63
2018-09-11T11:48:23.162Z,8.33
2018-09-11T11:50:53.412Z,6.23
2018-09-11T11:53:22.456Z,10.33
2018-09-11T11:55:51.590Z,10.07
2018-09-11T11:58:21.068Z,7.17
2018-09-11T12:00:49.741Z,9.20
2018-09-11T12:03:20.005Z,6.30
2018-09-11T12:05:48.845Z,6.83
2018-09-11T12:08:19.545Z,6.27
2018-09-11T12:10:48.517Z,7.40
2018-09-11T12:13:17.711Z,5.97
2018-09-11T12:15:46.582Z,5.60
2018-09-11T12:18:19.047Z,5.73
2018-09-11T12:20:49.207Z,7.03
2018-09-11T12:23:18.250Z,10.40
2018-09-11T12:25:48.922Z,7.20
2018-09-11T12:28:17.917Z,8.93
2018-09-11T12:31:09.952Z,7.83
2018-09-11T12:33:39.008Z,5.90
2018-09-11T12:36:10.540Z,6.60
2018-09-11T12:38:39.579Z,10.20
2018-09-11T12:41:08.875Z,6.17
2018-09-11T12:43:37.724Z,4.83
2018-09-11T12:46:09.140Z,7.77
2018-09-11T12:48:40.104Z,4.60
2018-09-11T12:51:14.625Z,6.40
2018-09-11T12:53:43.500Z,5.93
2018-09-11T12:56:12.132Z,6.57
2018-09-11T12:58:41.021Z,6.07
2018-09-11T13:01:09.693Z,6.10
2018-09-11T13:03:38.378Z,6.63
2018-09-11T13:06:07.086Z,7.40
2018-09-11T13:08:37.217Z,6.57
2018-09-11T13:11:05.967Z,8.17
2018-09-11T13:13:34.568Z,7.03
2018-09-11T13:16:03.383Z,5.17
2018-09-11T13:18:34.111Z,6.87
2018-09-11T13:21:03.400Z,10.10
2018-09-11T13:23:32.732Z,7.57
2018-09-11T13:26:01.848Z,9.20
2018-09-11T13:28:31.105Z,6.80
2018-09-11T13:31:00.397Z,7.77
2018-09-11T13:33:29.652Z,5.73
2018-09-11T13:36:00.178Z,6.27
2018-09-11T13:38:29.005Z,7.40
2018-09-11T13:40:57.587Z,8.27
2018-09-11T13:43:27.087Z,6.83
2018-09-11T13:45:56.083Z,7.47
2018-09-11T13:48:25.954Z,7.03
2018-09-11T13:50:54.367Z,5.93
2018-09-11T13:53:24.137Z,14.77
2018-09-11T13:55:53.276Z,6.07
2018-09-11T13:58:22.080Z,8.97
2018-09-11T14:00:50.812Z,8.97
2018-09-11T14:03:19.295Z,10.43
2018-09-11T14:05:48.100Z,5.43
2018-09-11T14:08:18.208Z,7.83
2018-09-11T14:10:47.052Z,6.27
2018-09-11T14:13:16.271Z,5.27
2018-09-11T14:15:45.514Z,4.53
2018-09-11T14:18:14.766Z,5.73
2018-09-11T14:20:44.531Z,6.00
2018-09-11T14:23:13.424Z,6.67
2018-09-11T14:25:42.203Z,7.23
2018-09-11T14:28:10.828Z,4.93
2018-09-11T14:30:40.388Z,6.53
2018-09-11T14:33:09.465Z,5.77
2018-09-11T14:35:38.643Z,6.73
2018-09-11T14:38:07.906Z,8.27
2018-09-11T14:40:41.877Z,7.63
2018-09-11T14:43:11.011Z,8.53
2018-09-11T14:45:40.225Z,4.07
2018-09-11T14:48:09.400Z,7.17
2018-09-11T14:50:38.062Z,8.13
2018-09-11T14:53:07.019Z,7.07
2018-09-11T14:55:35.901Z,6.17
2018-09-11T14:58:05.272Z,5.57
2018-09-11T15:00:33.960Z,7.13
2018-09-11T15:03:04.521Z,6.77
2018-09-11T15:05:33.951Z,8.33
2018-09-11T15:08:04.610Z,5.83
2018-09-11T15:10:33.796Z,5.13
2018-09-11T15:13:02.813Z,6.07
2018-09-11T15:15:32.298Z,7.00
2018-09-11T15:18:03.166Z,9.20
2018-09-11T15:20:32.368Z,4.60
2018-09-11T15:23:05.061Z,6.07
2018-09-11T15:25:34.629Z,4.40
2018-09-11T15:28:04.418Z,8.37
2018-09-11T15:30:35.603Z,8.03
2018-09-11T15:33:05.562Z,5.97
2018-09-11T15:35:35.063Z,4.87
2018-09-11T15:38:05.131Z,6.60
2018-09-11T15:40:38.432Z,10.40
2018-09-11T15:43:07.669Z,4.83
2018-09-11T15:45:38.759Z,5.60
2018-09-11T15:48:07.937Z,4.20
2018-09-11T15:50:37.004Z,8.87
2018-09-11T15:53:06.539Z,5.40
2018-09-11T15:55:35.954Z,6.97
2018-09-11T15:58:06.429Z,10.37
2018-09-11T16:00:38.210Z,5.53
2018-09-11T16:03:09.350Z,5.77
2018-09-11T16:05:41.610Z,6.27
2018-09-11T16:08:12.249Z,9.60
2018-09-11T16:10:42.009Z,7.03
2018-09-11T16:13:12.393Z,7.30
2018-09-11T16:15:41.748Z,10.43
2018-09-11T16:18:11.585Z,7.47
2018-09-11T16:20:43.113Z,5.50
2018-09-11T16:23:16.066Z,6.43
2018-09-11T16:25:46.822Z,7.40
2018-09-11T16:28:16.192Z,7.67
2018-09-11T16:30:47.567Z,6.30
2018-09-11T16:33:19.998Z,6.37
2018-09-11T16:35:49.221Z,5.27
2018-09-11T16:38:18.332Z,7.07
2018-09-11T16:40:47.381Z,7.30
2018-09-11T16:43:16.420Z,9.17
2018-09-11T16:45:48.138Z,7.40
2018-09-11T16:48:17.787Z,6.90
2018-09-11T16:50:47.591Z,4.70
2018-09-11T16:53:17.992Z,6.33
2018-09-11T16:55:48.431Z,7.47
2018-09-11T16:58:22.013Z,7.90
2018-09-11T17:00:53.686Z,6.27
2018-09-11T17:03:25.385Z,7.77
2018-09-11T17:05:59.632Z,9.50
2018-09-11T17:08:30.749Z,6.50
2018-09-11T17:11:04.158Z,7.93
2018-09-11T17:13:35.032Z,7.53
2018-09-11T17:16:10.671Z,6.40
2018-09-11T17:18:41.210Z,8.33
2018-09-11T17:21:10.692Z,9.20
2018-09-11T17:23:41.068Z,10.53
2018-09-11T17:26:10.385Z,14.30
2018-09-11T17:28:39.516Z,7.40
2018-09-11T17:31:08.289Z,8.90
2018-09-11T17:33:37.683Z,8.93
2018-09-11T17:36:09.346Z,9.43
2018-09-11T17:38:38.507Z,10.90
2018-09-11T17:41:07.397Z,10.27
2018-09-11T17:43:36.299Z,9.60
2018-09-11T17:46:05.599Z,11.90
2018-09-11T17:48:34.593Z,9.13
2018-09-11T17:51:04.849Z,8.83
2018-09-11T17:53:33.839Z,12.40
2018-09-11T17:56:02.957Z,13.33
2018-09-11T17:58:32.421Z,9.20
2018-09-11T18:01:04.479Z,10.97
2018-09-11T18:03:33.707Z,8.10
2018-09-11T18:06:03.004Z,9.23
2018-09-11T18:08:31.744Z,8.33
2018-09-11T18:11:01.100Z,11.77
2018-09-11T18:13:29.858Z,13.07
2018-09-11T18:16:00.440Z,12.40
2018-09-11T18:18:30.553Z,7.27
2018-09-11T18:20:59.646Z,11.03
2018-09-11T18:23:29.676Z,9.00
2018-09-11T18:26:02.971Z,11.67
2018-09-11T18:28:32.285Z,12.20
2018-09-11T18:31:01.566Z,11.37
2018-09-11T18:33:30.442Z,21.00
2018-09-11T18:35:59.547Z,15.90
2018-09-11T18:38:30.052Z,18.60
2018-09-11T18:40:59.649Z,13.17
2018-09-11T18:43:30.071Z,13.67
2018-09-11T18:46:00.360Z,13.17
2018-09-11T18:48:30.866Z,13.63
2018-09-11T18:51:00.242Z,15.63
2018-09-11T18:53:29.466Z,15.13
2018-09-11T18:55:59.166Z,16.03
2018-09-11T18:58:29.380Z,11.20
2018-09-11T19:01:00.033Z,11.77
2018-09-11T19:03:29.943Z,12.50
2018-09-11T19:05:59.311Z,13.83
2018-09-11T19:08:29.684Z,14.70
2018-09-11T19:10:58.706Z,11.70
2018-09-11T19:13:27.775Z,13.13
2018-09-11T19:15:58.029Z,12.30
2018-09-11T19:18:27.745Z,13.17
2018-09-11T19:21:01.440Z,14.03
2018-09-11T19:23:33.754Z,11.43
2018-09-11T19:26:03.215Z,13.03
2018-09-11T19:28:33.027Z,18.67
2018-09-11T19:31:03.014Z,12.43
2018-09-11T19:33:34.955Z,15.20
2018-09-11T19:36:05.775Z,16.67
2018-09-11T19:38:37.775Z,15.57
2018-09-11T19:41:07.147Z,15.80
2018-09-11T19:43:40.505Z,15.97
2018-09-11T19:46:09.631Z,17.67
2018-09-11T19:48:38.611Z,14.00
2018-09-11T19:51:10.362Z,10.77
2018-09-11T19:53:41.290Z,14.43
2018-09-11T19:56:10.589Z,14.63
2018-09-11T19:58:39.816Z,15.63
2018-09-11T20:01:09.125Z,13.77
2018-09-11T20:03:38.579Z,18.77
2018-09-11T20:06:07.530Z,14.13
2018-09-11T20:08:37.760Z,14.37
2018-09-11T20:11:06.544Z,14.47
2018-09-11T20:13:35.888Z,14.53
2018-09-11T20:16:08.645Z,12.37
2018-09-11T20:18:38.858Z,12.47
2018-09-11T20:21:09.969Z,14.70
2018-09-11T20:23:39.900Z,10.43
2018-09-11T20:26:10.040Z,17.77
2018-09-11T20:28:38.767Z,13.73
2018-09-11T20:31:07.969Z,12.43
2018-09-11T20:33:37.237Z,14.37
2018-09-11T20:36:06.607Z,15.37
2018-09-11T20:38:35.893Z,12.33
2018-09-11T20:41:04.835Z,13.03
2018-09-11T20:43:34.757Z,12.23
2018-09-11T20:46:03.668Z,11.63
2018-09-11T20:48:32.520Z,10.60
2018-09-11T20:51:02.860Z,11.53
2018-09-11T20:53:31.827Z,9.67
2018-09-11T20:56:00.822Z,12.70
2018-09-11T20:58:31.533Z,12.77
2018-09-11T21:01:00.174Z,11.40
2018-09-11T21:03:29.201Z,13.03
2018-09-11T21:05:57.873Z,15.03
2018-09-11T21:08:26.845Z,12.17
2018-09-11T21:10:55.973Z,16.10
2018-09-11T21:13:24.728Z,10.97
2018-09-11T21:15:53.564Z,10.90
2018-09-11T21:18:23.000Z,12.00
2018-09-11T21:20:52.190Z,10.83
2018-09-11T21:23:25.230Z,14.43
2018-09-11T21:25:54.092Z,12.07
2018-09-11T21:28:22.917Z,14.10
2018-09-11T21:30:52.090Z,11.77
2018-09-11T21:33:22.454Z,11.90
2018-09-11T21:35:52.086Z,12.83
2018-09-11T21:38:22.299Z,9.07
2018-09-11T21:40:54.149Z,12.07
2018-09-11T21:43:23.341Z,11.63
2018-09-11T21:45:53.317Z,11.07
2018-09-11T21:48:23.782Z,10.30
2018-09-11T21:50:52.306Z,14.20
